sensor_id;sensor_type;location;lat;lon;timestamp;P1;P2;P0
72908;PMS5003;61051;62.624;17.950;2023-12-20T00:00:20;0;0;
72908;PMS5003;61051;62.624;17.950;2023-12-20T00:02:48;0;0;
72908;PMS5003;61051;62.624;17.950;2023-12-20T00:05:17;0;0;
72908;PMS5003;61051;62.624;17.950;2023-12-20T00:07:45;0;0;
72908;PMS5003;61051;62.624;17.950;2023-12-20T00:10:14;1;1;
72908;PMS5003;61051;62.624;17.950;2023-12-20T00:12:43;0;0;
72908;PMS5003;61051;62.624;17.950;2023-12-20T00:15:11;2;0;
72908;PMS5003;61051;62.624;17.950;2023-12-20T00:17:40;0;0;
72908;PMS5003;61051;62.624;17.950;2023-12-20T00:20:09;0;0;
72908;PMS5003;61051;62.624;17.950;2023-12-20T00:22:38;1;1;
72908;PMS5003;61051;62.624;17.950;2023-12-20T00:25:07;1;0;
72908;PMS5003;61051;62.624;17.950;2023-12-20T00:27:36;1;1;
72908;PMS5003;61051;62.624;17.950;2023-12-20T00:30:04;1;1;
72908;PMS5003;61051;62.624;17.950;2023-12-20T00:32:34;0;0;
72908;PMS5003;61051;62.624;17.950;2023-12-20T00:35:03;1;0;
72908;PMS5003;61051;62.624;17.950;2023-12-20T00:37:33;0;0;
72908;PMS5003;61051;62.624;17.950;2023-12-20T00:40:02;0;0;
72908;PMS5003;61051;62.624;17.950;2023-12-20T00:42:30;3;0;
72908;PMS5003;61051;62.624;17.950;2023-12-20T00:44:59;1;1;
72908;PMS5003;61051;62.624;17.950;2023-12-20T00:47:27;2;0;
72908;PMS5003;61051;62.624;17.950;2023-12-20T00:49:56;0;0;
72908;PMS5003;61051;62.624;17.950;2023-12-20T00:52:25;0;0;
72908;PMS5003;61051;62.624;17.950;2023-12-20T00:54:54;0;0;
72908;PMS5003;61051;62.624;17.950;2023-12-20T00:57:24;2;1;
72908;PMS5003;61051;62.624;17.950;2023-12-20T00:59:53;0;0;
72908;PMS5003;61051;62.624;17.950;2023-12-20T01:02:22;2;1;
72908;PMS5003;61051;62.624;17.950;2023-12-20T01:04:51;2;0;
72908;PMS5003;61051;62.624;17.950;2023-12-20T01:07:21;0;0;
72908;PMS5003;61051;62.624;17.950;2023-12-20T01:09:50;0;0;
72908;PMS5003;61051;62.624;17.950;2023-12-20T01:12:18;4;1;
72908;PMS5003;61051;62.624;17.950;2023-12-20T01:14:47;0;0;
72908;PMS5003;61051;62.624;17.950;2023-12-20T01:17:16;0;0;
72908;PMS5003;61051;62.624;17.950;2023-12-20T01:19:44;1;0;
72908;PMS5003;61051;62.624;17.950;2023-12-20T01:22:13;3;0;
72908;PMS5003;61051;62.624;17.950;2023-12-20T01:24:41;2;0;
72908;PMS5003;61051;62.624;17.950;2023-12-20T01:27:10;0;0;
72908;PMS5003;61051;62.624;17.950;2023-12-20T01:29:38;2;0;
72908;PMS5003;61051;62.624;17.950;2023-12-20T01:32:07;0;0;
72908;PMS5003;61051;62.624;17.950;2023-12-20T01:34:35;2;1;
72908;PMS5003;61051;62.624;17.950;2023-12-20T01:37:04;0;0;
72908;PMS5003;61051;62.624;17.950;2023-12-20T01:39:33;1;0;
72908;PMS5003;61051;62.624;17.950;2023-12-20T01:42:01;0;0;
72908;PMS5003;61051;62.624;17.950;2023-12-20T01:44:30;0;0;
72908;PMS5003;61051;62.624;17.950;2023-12-20T01:46:58;0;0;
72908;PMS5003;61051;62.624;17.950;2023-12-20T01:49:27;2;1;
72908;PMS5003;61051;62.624;17.950;2023-12-20T01:51:57;2;0;
72908;PMS5003;61051;62.624;17.950;2023-12-20T01:54:26;1;1;
72908;PMS5003;61051;62.624;17.950;2023-12-20T01:56:55;0;0;
72908;PMS5003;61051;62.624;17.950;2023-12-20T01:59:23;0;0;
72908;PMS5003;61051;62.624;17.950;2023-12-20T02:01:51;1;0;
72908;PMS5003;61051;62.624;17.950;2023-12-20T02:04:22;1;0;
72908;PMS5003;61051;62.624;17.950;2023-12-20T02:06:52;1;1;
72908;PMS5003;61051;62.624;17.950;2023-12-20T02:09:22;2;0;
72908;PMS5003;61051;62.624;17.950;2023-12-20T02:11:51;1;1;
72908;PMS5003;61051;62.624;17.950;2023-12-20T02:14:20;0;0;
72908;PMS5003;61051;62.624;17.950;2023-12-20T02:16:48;0;0;
72908;PMS5003;61051;62.624;17.950;2023-12-20T02:19:17;0;0;
72908;PMS5003;61051;62.624;17.950;2023-12-20T02:21:47;0;0;
72908;PMS5003;61051;62.624;17.950;2023-12-20T02:24:16;3;0;
72908;PMS5003;61051;62.624;17.950;2023-12-20T02:26:45;0;0;
72908;PMS5003;61051;62.624;17.950;2023-12-20T02:29:13;3;1;
72908;PMS5003;61051;62.624;17.950;2023-12-20T02:31:42;0;0;
72908;PMS5003;61051;62.624;17.950;2023-12-20T02:34:10;1;0;
72908;PMS5003;61051;62.624;17.950;2023-12-20T02:36:39;0;0;
72908;PMS5003;61051;62.624;17.950;2023-12-20T02:39:07;0;0;
72908;PMS5003;61051;62.624;17.950;2023-12-20T02:41:36;3;1;
72908;PMS5003;61051;62.624;17.950;2023-12-20T02:44:04;0;0;
72908;PMS5003;61051;62.624;17.950;2023-12-20T02:46:33;0;0;
72908;PMS5003;61051;62.624;17.950;2023-12-20T02:49:02;0;0;
72908;PMS5003;61051;62.624;17.950;2023-12-20T02:51:30;0;0;
72908;PMS5003;61051;62.624;17.950;2023-12-20T02:53:59;0;0;
72908;PMS5003;61051;62.624;17.950;2023-12-20T02:56:27;0;0;
72908;PMS5003;61051;62.624;17.950;2023-12-20T02:58:56;0;0;
72908;PMS5003;61051;62.624;17.950;2023-12-20T03:01:24;1;1;
72908;PMS5003;61051;62.624;17.950;2023-12-20T03:03:55;2;1;
72908;PMS5003;61051;62.624;17.950;2023-12-20T03:06:23;0;0;
72908;PMS5003;61051;62.624;17.950;2023-12-20T03:08:52;0;0;
72908;PMS5003;61051;62.624;17.950;2023-12-20T03:11:26;2;0;
72908;PMS5003;61051;62.624;17.950;2023-12-20T03:13:54;0;0;
72908;PMS5003;61051;62.624;17.950;2023-12-20T03:16:24;1;0;
72908;PMS5003;61051;62.624;17.950;2023-12-20T03:18:53;2;0;
72908;PMS5003;61051;62.624;17.950;2023-12-20T03:21:23;0;0;
72908;PMS5003;61051;62.624;17.950;2023-12-20T03:23:52;0;0;
72908;PMS5003;61051;62.624;17.950;2023-12-20T03:26:22;1;1;
72908;PMS5003;61051;62.624;17.950;2023-12-20T03:34:26;0;0;
72908;PMS5003;61051;62.624;17.950;2023-12-20T03:36:55;0;0;
72908;PMS5003;61051;62.624;17.950;2023-12-20T03:39:23;1;0;
72908;PMS5003;61051;62.624;17.950;2023-12-20T03:41:53;0;0;
72908;PMS5003;61051;62.624;17.950;2023-12-20T03:44:22;2;0;
72908;PMS5003;61051;62.624;17.950;2023-12-20T03:46:50;2;0;
72908;PMS5003;61051;62.624;17.950;2023-12-20T03:49:20;0;0;
72908;PMS5003;61051;62.624;17.950;2023-12-20T03:51:48;0;0;
72908;PMS5003;61051;62.624;17.950;2023-12-20T03:54:17;0;0;
72908;PMS5003;61051;62.624;17.950;2023-12-20T03:56:46;0;0;
72908;PMS5003;61051;62.624;17.950;2023-12-20T03:59:14;0;0;
72908;PMS5003;61051;62.624;17.950;2023-12-20T04:01:43;0;0;
72908;PMS5003;61051;62.624;17.950;2023-12-20T04:04:12;1;0;
72908;PMS5003;61051;62.624;17.950;2023-12-20T04:06:42;0;0;
72908;PMS5003;61051;62.624;17.950;2023-12-20T04:09:10;0;0;
72908;PMS5003;61051;62.624;17.950;2023-12-20T04:11:39;1;0;
72908;PMS5003;61051;62.624;17.950;2023-12-20T04:14:07;0;0;
72908;PMS5003;61051;62.624;17.950;2023-12-20T04:16:36;0;0;
72908;PMS5003;61051;62.624;17.950;2023-12-20T04:19:05;0;0;
72908;PMS5003;61051;62.624;17.950;2023-12-20T04:21:33;0;0;
72908;PMS5003;61051;62.624;17.950;2023-12-20T04:24:02;0;0;
72908;PMS5003;61051;62.624;17.950;2023-12-20T04:26:30;0;0;
72908;PMS5003;61051;62.624;17.950;2023-12-20T04:28:59;0;0;
72908;PMS5003;61051;62.624;17.950;2023-12-20T04:31:27;0;0;
72908;PMS5003;61051;62.624;17.950;2023-12-20T04:33:56;0;0;
72908;PMS5003;61051;62.624;17.950;2023-12-20T04:36:25;1;0;
72908;PMS5003;61051;62.624;17.950;2023-12-20T04:38:54;0;0;
72908;PMS5003;61051;62.624;17.950;2023-12-20T04:41:23;0;0;
72908;PMS5003;61051;62.624;17.950;2023-12-20T04:43:52;0;0;
72908;PMS5003;61051;62.624;17.950;2023-12-20T04:46:22;1;0;
72908;PMS5003;61051;62.624;17.950;2023-12-20T04:48:50;0;0;
72908;PMS5003;61051;62.624;17.950;2023-12-20T04:51:19;0;0;
72908;PMS5003;61051;62.624;17.950;2023-12-20T04:53:48;1;0;
72908;PMS5003;61051;62.624;17.950;2023-12-20T04:56:16;0;0;
72908;PMS5003;61051;62.624;17.950;2023-12-20T04:58:45;1;1;
72908;PMS5003;61051;62.624;17.950;2023-12-20T05:04:23;1;0;
72908;PMS5003;61051;62.624;17.950;2023-12-20T05:06:51;0;0;
72908;PMS5003;61051;62.624;17.950;2023-12-20T05:09:20;1;0;
72908;PMS5003;61051;62.624;17.950;2023-12-20T05:11:48;0;0;
72908;PMS5003;61051;62.624;17.950;2023-12-20T05:14:17;0;0;
72908;PMS5003;61051;62.624;17.950;2023-12-20T05:16:46;0;0;
72908;PMS5003;61051;62.624;17.950;2023-12-20T05:19:14;1;0;
72908;PMS5003;61051;62.624;17.950;2023-12-20T05:21:43;0;0;
72908;PMS5003;61051;62.624;17.950;2023-12-20T05:24:11;0;0;
72908;PMS5003;61051;62.624;17.950;2023-12-20T05:26:40;0;0;
72908;PMS5003;61051;62.624;17.950;2023-12-20T05:29:09;1;0;
72908;PMS5003;61051;62.624;17.950;2023-12-20T05:31:38;7;0;
72908;PMS5003;61051;62.624;17.950;2023-12-20T05:34:06;0;0;
72908;PMS5003;61051;62.624;17.950;2023-12-20T05:36:35;0;0;
72908;PMS5003;61051;62.624;17.950;2023-12-20T05:39:04;0;0;
72908;PMS5003;61051;62.624;17.950;2023-12-20T05:41:32;1;0;
72908;PMS5003;61051;62.624;17.950;2023-12-20T05:44:01;1;1;
72908;PMS5003;61051;62.624;17.950;2023-12-20T05:46:31;1;1;
72908;PMS5003;61051;62.624;17.950;2023-12-20T05:49:00;3;0;
72908;PMS5003;61051;62.624;17.950;2023-12-20T05:55:30;0;0;
72908;PMS5003;61051;62.624;17.950;2023-12-20T05:57:58;0;0;
72908;PMS5003;61051;62.624;17.950;2023-12-20T06:00:27;0;0;
72908;PMS5003;61051;62.624;17.950;2023-12-20T06:02:55;2;1;
72908;PMS5003;61051;62.624;17.950;2023-12-20T06:05:24;1;0;
72908;PMS5003;61051;62.624;17.950;2023-12-20T06:07:53;0;0;
72908;PMS5003;61051;62.624;17.950;2023-12-20T06:10:22;1;1;
72908;PMS5003;61051;62.624;17.950;2023-12-20T06:12:50;0;0;
72908;PMS5003;61051;62.624;17.950;2023-12-20T06:15:19;2;0;
72908;PMS5003;61051;62.624;17.950;2023-12-20T06:17:48;0;0;
72908;PMS5003;61051;62.624;17.950;2023-12-20T06:20:16;0;0;
72908;PMS5003;61051;62.624;17.950;2023-12-20T06:22:46;1;1;
72908;PMS5003;61051;62.624;17.950;2023-12-20T06:25:14;1;1;
72908;PMS5003;61051;62.624;17.950;2023-12-20T06:27:43;0;0;
72908;PMS5003;61051;62.624;17.950;2023-12-20T06:30:12;1;0;
72908;PMS5003;61051;62.624;17.950;2023-12-20T06:32:40;1;0;
72908;PMS5003;61051;62.624;17.950;2023-12-20T06:35:09;0;0;
72908;PMS5003;61051;62.624;17.950;2023-12-20T06:37:37;0;0;
72908;PMS5003;61051;62.624;17.950;2023-12-20T06:40:07;0;0;
72908;PMS5003;61051;62.624;17.950;2023-12-20T06:42:37;1;1;
72908;PMS5003;61051;62.624;17.950;2023-12-20T06:45:06;2;1;
72908;PMS5003;61051;62.624;17.950;2023-12-20T06:47:35;2;1;
72908;PMS5003;61051;62.624;17.950;2023-12-20T06:50:04;0;0;
72908;PMS5003;61051;62.624;17.950;2023-12-20T06:52:32;1;1;
72908;PMS5003;61051;62.624;17.950;2023-12-20T06:55:01;0;0;
72908;PMS5003;61051;62.624;17.950;2023-12-20T06:57:31;0;0;
72908;PMS5003;61051;62.624;17.950;2023-12-20T07:00:01;0;0;
72908;PMS5003;61051;62.624;17.950;2023-12-20T07:02:36;1;0;
72908;PMS5003;61051;62.624;17.950;2023-12-20T07:05:05;0;0;
72908;PMS5003;61051;62.624;17.950;2023-12-20T07:09:47;0;0;
72908;PMS5003;61051;62.624;17.950;2023-12-20T07:12:16;0;0;
72908;PMS5003;61051;62.624;17.950;2023-12-20T07:14:45;0;0;
72908;PMS5003;61051;62.624;17.950;2023-12-20T07:17:13;2;2;
72908;PMS5003;61051;62.624;17.950;2023-12-20T07:19:42;2;1;
72908;PMS5003;61051;62.624;17.950;2023-12-20T07:22:11;0;0;
72908;PMS5003;61051;62.624;17.950;2023-12-20T07:24:39;0;0;
72908;PMS5003;61051;62.624;17.950;2023-12-20T07:27:08;3;1;
72908;PMS5003;61051;62.624;17.950;2023-12-20T07:29:37;1;0;
72908;PMS5003;61051;62.624;17.950;2023-12-20T07:32:06;3;2;
72908;PMS5003;61051;62.624;17.950;2023-12-20T07:34:34;0;0;
72908;PMS5003;61051;62.624;17.950;2023-12-20T07:37:03;2;0;
72908;PMS5003;61051;62.624;17.950;2023-12-20T07:39:31;1;0;
72908;PMS5003;61051;62.624;17.950;2023-12-20T07:42:01;0;0;
72908;PMS5003;61051;62.624;17.950;2023-12-20T07:44:30;0;0;
72908;PMS5003;61051;62.624;17.950;2023-12-20T07:46:59;2;1;
72908;PMS5003;61051;62.624;17.950;2023-12-20T07:49:28;2;0;
72908;PMS5003;61051;62.624;17.950;2023-12-20T07:51:57;3;2;
72908;PMS5003;61051;62.624;17.950;2023-12-20T07:54:26;1;1;
72908;PMS5003;61051;62.624;17.950;2023-12-20T07:56:55;0;0;
72908;PMS5003;61051;62.624;17.950;2023-12-20T07:59:23;1;0;
72908;PMS5003;61051;62.624;17.950;2023-12-20T08:01:51;0;0;
72908;PMS5003;61051;62.624;17.950;2023-12-20T08:04:21;3;0;
72908;PMS5003;61051;62.624;17.950;2023-12-20T08:04:22;2;0;
72908;PMS5003;61051;62.624;17.950;2023-12-20T08:06:51;0;0;
72908;PMS5003;61051;62.624;17.950;2023-12-20T08:09:20;0;0;
72908;PMS5003;61051;62.624;17.950;2023-12-20T08:11:48;3;0;
72908;PMS5003;61051;62.624;17.950;2023-12-20T08:14:17;0;0;
72908;PMS5003;61051;62.624;17.950;2023-12-20T08:16:46;0;0;
72908;PMS5003;61051;62.624;17.950;2023-12-20T08:19:14;1;0;
72908;PMS5003;61051;62.624;17.950;2023-12-20T08:21:43;6;2;
72908;PMS5003;61051;62.624;17.950;2023-12-20T08:24:12;3;1;
72908;PMS5003;61051;62.624;17.950;2023-12-20T08:26:40;1;1;
72908;PMS5003;61051;62.624;17.950;2023-12-20T08:29:09;1;1;
72908;PMS5003;61051;62.624;17.950;2023-12-20T08:31:38;1;1;
72908;PMS5003;61051;62.624;17.950;2023-12-20T08:34:07;1;1;
72908;PMS5003;61051;62.624;17.950;2023-12-20T08:36:36;1;1;
72908;PMS5003;61051;62.624;17.950;2023-12-20T08:39:04;2;1;
72908;PMS5003;61051;62.624;17.950;2023-12-20T08:41:33;0;0;
72908;PMS5003;61051;62.624;17.950;2023-12-20T08:44:03;2;1;
72908;PMS5003;61051;62.624;17.950;2023-12-20T08:46:32;2;1;
72908;PMS5003;61051;62.624;17.950;2023-12-20T08:49:03;7;1;
72908;PMS5003;61051;62.624;17.950;2023-12-20T08:51:32;6;1;
72908;PMS5003;61051;62.624;17.950;2023-12-20T08:54:01;9;1;
72908;PMS5003;61051;62.624;17.950;2023-12-20T08:56:31;3;2;
72908;PMS5003;61051;62.624;17.950;2023-12-20T08:59:00;4;2;
72908;PMS5003;61051;62.624;17.950;2023-12-20T09:01:30;2;2;
72908;PMS5003;61051;62.624;17.950;2023-12-20T09:03:58;1;1;
72908;PMS5003;61051;62.624;17.950;2023-12-20T09:06:27;4;2;
72908;PMS5003;61051;62.624;17.950;2023-12-20T09:08:56;4;4;
72908;PMS5003;61051;62.624;17.950;2023-12-20T09:11:24;7;7;
72908;PMS5003;61051;62.624;17.950;2023-12-20T09:13:53;2;2;
72908;PMS5003;61051;62.624;17.950;2023-12-20T09:16:22;2;2;
72908;PMS5003;61051;62.624;17.950;2023-12-20T09:18:51;3;3;
72908;PMS5003;61051;62.624;17.950;2023-12-20T09:21:20;4;3;
72908;PMS5003;61051;62.624;17.950;2023-12-20T09:23:49;4;3;
72908;PMS5003;61051;62.624;17.950;2023-12-20T09:26:18;11;4;
72908;PMS5003;61051;62.624;17.950;2023-12-20T09:28:46;4;3;
72908;PMS5003;61051;62.624;17.950;2023-12-20T09:31:15;6;3;
72908;PMS5003;61051;62.624;17.950;2023-12-20T09:33:44;6;3;
72908;PMS5003;61051;62.624;17.950;2023-12-20T09:36:13;6;3;
72908;PMS5003;61051;62.624;17.950;2023-12-20T09:38:41;6;6;
72908;PMS5003;61051;62.624;17.950;2023-12-20T09:41:10;6;3;
72908;PMS5003;61051;62.624;17.950;2023-12-20T09:43:39;1;1;
72908;PMS5003;61051;62.624;17.950;2023-12-20T09:46:08;2;2;
72908;PMS5003;61051;62.624;17.950;2023-12-20T09:48:40;6;3;
72908;PMS5003;61051;62.624;17.950;2023-12-20T09:51:09;2;2;
72908;PMS5003;61051;62.624;17.950;2023-12-20T09:53:38;3;2;
72908;PMS5003;61051;62.624;17.950;2023-12-20T09:56:09;3;1;
72908;PMS5003;61051;62.624;17.950;2023-12-20T09:58:40;6;3;
72908;PMS5003;61051;62.624;17.950;2023-12-20T10:01:09;3;3;
72908;PMS5003;61051;62.624;17.950;2023-12-20T10:03:39;3;1;
72908;PMS5003;61051;62.624;17.950;2023-12-20T10:06:09;3;2;
72908;PMS5003;61051;62.624;17.950;2023-12-20T10:08:38;5;3;
72908;PMS5003;61051;62.624;17.950;2023-12-20T10:11:07;2;2;
72908;PMS5003;61051;62.624;17.950;2023-12-20T10:13:39;3;2;
72908;PMS5003;61051;62.624;17.950;2023-12-20T10:16:08;1;1;
72908;PMS5003;61051;62.624;17.950;2023-12-20T10:18:37;2;1;
72908;PMS5003;61051;62.624;17.950;2023-12-20T10:21:05;0;0;
72908;PMS5003;61051;62.624;17.950;2023-12-20T10:23:34;1;1;
72908;PMS5003;61051;62.624;17.950;2023-12-20T10:26:03;5;5;
72908;PMS5003;61051;62.624;17.950;2023-12-20T10:28:32;3;1;
72908;PMS5003;61051;62.624;17.950;2023-12-20T10:31:02;1;1;
72908;PMS5003;61051;62.624;17.950;2023-12-20T10:33:31;1;0;
72908;PMS5003;61051;62.624;17.950;2023-12-20T10:36:00;2;1;
72908;PMS5003;61051;62.624;17.950;2023-12-20T10:38:30;0;0;
72908;PMS5003;61051;62.624;17.950;2023-12-20T10:41:00;6;1;
72908;PMS5003;61051;62.624;17.950;2023-12-20T10:43:33;2;2;
72908;PMS5003;61051;62.624;17.950;2023-12-20T10:46:03;1;0;
72908;PMS5003;61051;62.624;17.950;2023-12-20T10:48:34;0;0;
72908;PMS5003;61051;62.624;17.950;2023-12-20T10:51:03;1;1;
72908;PMS5003;61051;62.624;17.950;2023-12-20T10:53:33;11;4;
72908;PMS5003;61051;62.624;17.950;2023-12-20T10:56:04;1;1;
72908;PMS5003;61051;62.624;17.950;2023-12-20T10:58:36;3;2;
72908;PMS5003;61051;62.624;17.950;2023-12-20T11:03:29;1;1;
72908;PMS5003;61051;62.624;17.950;2023-12-20T11:06:05;3;1;
72908;PMS5003;61051;62.624;17.950;2023-12-20T11:08:43;3;2;
72908;PMS5003;61051;62.624;17.950;2023-12-20T11:11:18;3;3;
72908;PMS5003;61051;62.624;17.950;2023-12-20T11:13:55;0;0;
72908;PMS5003;61051;62.624;17.950;2023-12-20T11:16:31;3;2;
72908;PMS5003;61051;62.624;17.950;2023-12-20T11:19:04;0;0;
72908;PMS5003;61051;62.624;17.950;2023-12-20T11:21:34;0;0;
72908;PMS5003;61051;62.624;17.950;2023-12-20T11:24:03;6;1;
72908;PMS5003;61051;62.624;17.950;2023-12-20T11:26:34;2;1;
72908;PMS5003;61051;62.624;17.950;2023-12-20T11:29:36;2;2;
72908;PMS5003;61051;62.624;17.950;2023-12-20T11:32:28;1;1;
72908;PMS5003;61051;62.624;17.950;2023-12-20T11:34:56;2;1;
72908;PMS5003;61051;62.624;17.950;2023-12-20T11:37:28;5;1;
72908;PMS5003;61051;62.624;17.950;2023-12-20T11:40:00;1;1;
72908;PMS5003;61051;62.624;17.950;2023-12-20T11:42:32;1;1;
72908;PMS5003;61051;62.624;17.950;2023-12-20T11:45:01;2;2;
72908;PMS5003;61051;62.624;17.950;2023-12-20T11:47:31;1;1;
72908;PMS5003;61051;62.624;17.950;2023-12-20T11:49:59;0;0;
72908;PMS5003;61051;62.624;17.950;2023-12-20T11:52:28;7;2;
72908;PMS5003;61051;62.624;17.950;2023-12-20T11:54:57;3;2;
72908;PMS5003;61051;62.624;17.950;2023-12-20T11:57:26;3;1;
72908;PMS5003;61051;62.624;17.950;2023-12-20T11:59:55;1;1;
72908;PMS5003;61051;62.624;17.950;2023-12-20T12:02:24;2;1;
72908;PMS5003;61051;62.624;17.950;2023-12-20T12:04:52;0;0;
72908;PMS5003;61051;62.624;17.950;2023-12-20T12:07:21;0;0;
72908;PMS5003;61051;62.624;17.950;2023-12-20T12:09:50;1;1;
72908;PMS5003;61051;62.624;17.950;2023-12-20T12:12:19;10;2;
72908;PMS5003;61051;62.624;17.950;2023-12-20T12:14:47;1;1;
72908;PMS5003;61051;62.624;17.950;2023-12-20T12:17:16;5;5;
72908;PMS5003;61051;62.624;17.950;2023-12-20T12:19:45;2;1;
72908;PMS5003;61051;62.624;17.950;2023-12-20T12:22:14;1;1;
72908;PMS5003;61051;62.624;17.950;2023-12-20T12:24:43;0;0;
72908;PMS5003;61051;62.624;17.950;2023-12-20T12:27:11;0;0;
72908;PMS5003;61051;62.624;17.950;2023-12-20T12:29:59;1;1;
72908;PMS5003;61051;62.624;17.950;2023-12-20T12:32:30;2;0;
72908;PMS5003;61051;62.624;17.950;2023-12-20T12:34:58;0;0;
72908;PMS5003;61051;62.624;17.950;2023-12-20T12:37:27;1;0;
72908;PMS5003;61051;62.624;17.950;2023-12-20T12:39:56;2;1;
72908;PMS5003;61051;62.624;17.950;2023-12-20T12:42:25;1;1;
72908;PMS5003;61051;62.624;17.950;2023-12-20T12:44:54;1;1;
72908;PMS5003;61051;62.624;17.950;2023-12-20T12:47:23;1;1;
72908;PMS5003;61051;62.624;17.950;2023-12-20T12:49:53;12;10;
72908;PMS5003;61051;62.624;17.950;2023-12-20T12:52:21;7;7;
72908;PMS5003;61051;62.624;17.950;2023-12-20T12:54:50;0;0;
72908;PMS5003;61051;62.624;17.950;2023-12-20T12:57:19;3;1;
72908;PMS5003;61051;62.624;17.950;2023-12-20T12:59:48;3;3;
72908;PMS5003;61051;62.624;17.950;2023-12-20T13:02:16;0;0;
72908;PMS5003;61051;62.624;17.950;2023-12-20T13:04:45;3;1;
72908;PMS5003;61051;62.624;17.950;2023-12-20T13:07:14;1;1;
72908;PMS5003;61051;62.624;17.950;2023-12-20T13:09:43;0;0;
72908;PMS5003;61051;62.624;17.950;2023-12-20T13:12:11;2;0;
72908;PMS5003;61051;62.624;17.950;2023-12-20T13:14:40;6;3;
72908;PMS5003;61051;62.624;17.950;2023-12-20T13:17:09;2;2;
72908;PMS5003;61051;62.624;17.950;2023-12-20T13:19:38;0;0;
72908;PMS5003;61051;62.624;17.950;2023-12-20T13:22:07;2;0;
72908;PMS5003;61051;62.624;17.950;2023-12-20T13:24:36;1;1;
72908;PMS5003;61051;62.624;17.950;2023-12-20T13:27:05;2;1;
72908;PMS5003;61051;62.624;17.950;2023-12-20T13:29:35;1;1;
72908;PMS5003;61051;62.624;17.950;2023-12-20T13:32:05;0;0;
72908;PMS5003;61051;62.624;17.950;2023-12-20T13:34:34;1;1;
72908;PMS5003;61051;62.624;17.950;2023-12-20T13:37:03;0;0;
72908;PMS5003;61051;62.624;17.950;2023-12-20T13:39:32;2;0;
72908;PMS5003;61051;62.624;17.950;2023-12-20T13:42:01;1;1;
72908;PMS5003;61051;62.624;17.950;2023-12-20T13:44:30;5;2;
72908;PMS5003;61051;62.624;17.950;2023-12-20T13:46:58;1;1;
72908;PMS5003;61051;62.624;17.950;2023-12-20T13:49:29;2;2;
72908;PMS5003;61051;62.624;17.950;2023-12-20T13:51:59;1;1;
72908;PMS5003;61051;62.624;17.950;2023-12-20T13:54:27;2;2;
72908;PMS5003;61051;62.624;17.950;2023-12-20T13:56:56;2;1;
72908;PMS5003;61051;62.624;17.950;2023-12-20T13:59:25;2;2;
72908;PMS5003;61051;62.624;17.950;2023-12-20T14:01:54;1;1;
72908;PMS5003;61051;62.624;17.950;2023-12-20T14:04:22;1;1;
72908;PMS5003;61051;62.624;17.950;2023-12-20T14:06:51;2;0;
72908;PMS5003;61051;62.624;17.950;2023-12-20T14:09:20;5;1;
72908;PMS5003;61051;62.624;17.950;2023-12-20T14:11:49;1;1;
72908;PMS5003;61051;62.624;17.950;2023-12-20T14:14:18;1;1;
72908;PMS5003;61051;62.624;17.950;2023-12-20T14:16:46;1;1;
72908;PMS5003;61051;62.624;17.950;2023-12-20T14:19:15;4;1;
72908;PMS5003;61051;62.624;17.950;2023-12-20T14:21:44;1;0;
72908;PMS5003;61051;62.624;17.950;2023-12-20T14:24:13;2;1;
72908;PMS5003;61051;62.624;17.950;2023-12-20T14:26:42;1;1;
72908;PMS5003;61051;62.624;17.950;2023-12-20T14:29:10;2;0;
72908;PMS5003;61051;62.624;17.950;2023-12-20T14:31:39;1;1;
72908;PMS5003;61051;62.624;17.950;2023-12-20T14:34:08;5;4;
72908;PMS5003;61051;62.624;17.950;2023-12-20T14:36:37;2;0;
72908;PMS5003;61051;62.624;17.950;2023-12-20T14:39:06;1;1;
72908;PMS5003;61051;62.624;17.950;2023-12-20T14:41:36;0;0;
72908;PMS5003;61051;62.624;17.950;2023-12-20T14:44:06;1;1;
72908;PMS5003;61051;62.624;17.950;2023-12-20T14:46:34;4;1;
72908;PMS5003;61051;62.624;17.950;2023-12-20T14:49:04;1;1;
72908;PMS5003;61051;62.624;17.950;2023-12-20T14:51:34;0;0;
72908;PMS5003;61051;62.624;17.950;2023-12-20T14:54:03;2;1;
72908;PMS5003;61051;62.624;17.950;2023-12-20T14:56:32;5;1;
72908;PMS5003;61051;62.624;17.950;2023-12-20T14:59:01;0;0;
72908;PMS5003;61051;62.624;17.950;2023-12-20T15:01:30;17;8;
72908;PMS5003;61051;62.624;17.950;2023-12-20T15:03:59;2;2;
72908;PMS5003;61051;62.624;17.950;2023-12-20T15:06:28;4;2;
72908;PMS5003;61051;62.624;17.950;2023-12-20T15:08:57;2;2;
72908;PMS5003;61051;62.624;17.950;2023-12-20T15:11:26;6;5;
72908;PMS5003;61051;62.624;17.950;2023-12-20T15:13:55;8;6;
72908;PMS5003;61051;62.624;17.950;2023-12-20T15:16:24;4;4;
72908;PMS5003;61051;62.624;17.950;2023-12-20T15:18:53;9;5;
72908;PMS5003;61051;62.624;17.950;2023-12-20T15:21:21;4;4;
72908;PMS5003;61051;62.624;17.950;2023-12-20T15:23:50;12;8;
72908;PMS5003;61051;62.624;17.950;2023-12-20T15:26:19;9;8;
72908;PMS5003;61051;62.624;17.950;2023-12-20T15:28:49;5;5;
72908;PMS5003;61051;62.624;17.950;2023-12-20T15:31:17;9;8;
72908;PMS5003;61051;62.624;17.950;2023-12-20T15:33:52;5;5;
72908;PMS5003;61051;62.624;17.950;2023-12-20T15:36:21;24;12;
72908;PMS5003;61051;62.624;17.950;2023-12-20T15:38:50;8;8;
72908;PMS5003;61051;62.624;17.950;2023-12-20T15:41:19;14;8;
72908;PMS5003;61051;62.624;17.950;2023-12-20T15:43:48;16;8;
72908;PMS5003;61051;62.624;17.950;2023-12-20T15:46:17;10;5;
72908;PMS5003;61051;62.624;17.950;2023-12-20T15:48:46;9;6;
72908;PMS5003;61051;62.624;17.950;2023-12-20T15:51:15;8;8;
72908;PMS5003;61051;62.624;17.950;2023-12-20T15:53:44;9;6;
72908;PMS5003;61051;62.624;17.950;2023-12-20T15:56:13;8;5;
72908;PMS5003;61051;62.624;17.950;2023-12-20T15:58:42;6;5;
72908;PMS5003;61051;62.624;17.950;2023-12-20T16:01:11;6;5;
72908;PMS5003;61051;62.624;17.950;2023-12-20T16:03:40;8;6;
72908;PMS5003;61051;62.624;17.950;2023-12-20T16:06:09;4;4;
72908;PMS5003;61051;62.624;17.950;2023-12-20T16:08:38;5;5;
72908;PMS5003;61051;62.624;17.950;2023-12-20T16:11:07;8;6;
72908;PMS5003;61051;62.624;17.950;2023-12-20T16:13:36;5;2;
72908;PMS5003;61051;62.624;17.950;2023-12-20T16:16:06;8;8;
72908;PMS5003;61051;62.624;17.950;2023-12-20T16:18:36;8;6;
72908;PMS5003;61051;62.624;17.950;2023-12-20T16:21:05;6;6;
72908;PMS5003;61051;62.624;17.950;2023-12-20T16:23:35;13;8;
72908;PMS5003;61051;62.624;17.950;2023-12-20T16:26:05;8;5;
72908;PMS5003;61051;62.624;17.950;2023-12-20T16:28:33;16;9;
72908;PMS5003;61051;62.624;17.950;2023-12-20T16:31:02;4;4;
72908;PMS5003;61051;62.624;17.950;2023-12-20T16:33:31;9;6;
72908;PMS5003;61051;62.624;17.950;2023-12-20T16:36:00;12;9;
72908;PMS5003;61051;62.624;17.950;2023-12-20T16:38:29;8;6;
72908;PMS5003;61051;62.624;17.950;2023-12-20T16:40:58;4;4;
72908;PMS5003;61051;62.624;17.950;2023-12-20T16:43:27;16;8;
72908;PMS5003;61051;62.624;17.950;2023-12-20T16:45:56;5;5;
72908;PMS5003;61051;62.624;17.950;2023-12-20T16:48:25;4;4;
72908;PMS5003;61051;62.624;17.950;2023-12-20T16:50:54;13;9;
72908;PMS5003;61051;62.624;17.950;2023-12-20T16:53:22;8;6;
72908;PMS5003;61051;62.624;17.950;2023-12-20T16:55:51;9;5;
72908;PMS5003;61051;62.624;17.950;2023-12-20T16:58:20;9;6;
72908;PMS5003;61051;62.624;17.950;2023-12-20T17:03:15;13;10;